Time;durP1;ratioP1;P1;durP2;ratioP2;P2;SDS_P1;SDS_P2;PMS_P1;PMS_P2;Temp;Humidity;BMP_temperature;BMP_pressure;BME280_temperature;BME280_humidity;BME280_pressure;Samples;Min_cycle;Max_cycle;Signal;HPM_P1;HPM_P2
2023/08/23 00:01:23;;;;;;;3.70;1.87;;;;;;;-145.18;100.00;46660.41;5031860;28;20445;-61
2023/08/23 00:03:48;;;;;;;2.07;1.43;;;;;;;-145.18;100.00;46677.97;5014177;28;20029;-61
2023/08/23 00:06:14;;;;;;;3.50;1.20;;;;;;;-145.18;100.00;46638.91;5030627;28;20033;-62
2023/08/23 00:08:39;;;;;;;2.47;1.80;;;;;;;-145.18;100.00;46640.88;5031768;28;20037;-62
2023/08/23 00:11:04;;;;;;;6.80;1.63;;;;;;;-145.18;100.00;46660.41;5031805;28;20033;-61
2023/08/23 00:13:30;;;;;;;1.70;1.20;;;;;;;-145.18;100.00;46676.03;5031506;28;20033;-62
2023/08/23 00:15:55;;;;;;;1.80;0.90;;;;;;;-145.18;100.00;46660.41;5030760;28;20060;-61
2023/08/23 00:18:20;;;;;;;2.00;1.30;;;;;;;-145.18;100.00;46638.91;5031641;28;20033;-61
2023/08/23 00:20:46;;;;;;;2.00;1.10;;;;;;;-145.18;100.00;46660.41;5031698;28;20112;-61
2023/08/23 00:23:11;;;;;;;1.13;0.97;;;;;;;-145.18;100.00;46677.97;5031175;28;20082;-61
2023/08/23 00:25:36;;;;;;;2.90;1.30;;;;;;;-145.18;100.00;46640.88;5032104;28;20033;-61
2023/08/23 00:28:02;;;;;;;2.23;1.40;;;;;;;-145.18;100.00;46642.81;5030334;28;20417;-61
2023/08/23 00:30:27;;;;;;;2.37;1.40;;;;;;;-145.18;100.00;46642.81;5030366;28;20164;-61
2023/08/23 00:32:53;;;;;;;3.77;1.57;;;;;;;-145.18;100.00;46642.81;5030280;28;20037;-61
2023/08/23 00:35:20;;;;;;;2.80;1.70;;;;;;;-145.18;100.00;46638.91;5031714;28;20472;-62
2023/08/23 00:37:45;;;;;;;2.00;1.30;;;;;;;-145.18;100.00;46660.41;5031816;28;20444;-62
2023/08/23 00:40:10;;;;;;;4.03;1.20;;;;;;;-145.18;100.00;46644.78;5031576;28;20029;-62
2023/08/23 00:42:36;;;;;;;2.27;1.73;;;;;;;-145.18;100.00;46640.88;5031819;28;20113;-61
2023/08/23 00:45:02;;;;;;;3.43;1.40;;;;;;;-145.18;100.00;46636.94;5032035;28;20048;-62
2023/08/23 00:47:28;;;;;;;1.70;1.30;;;;;;;-145.18;100.00;46677.97;5035710;28;20118;-62
2023/08/23 00:49:55;;;;;;;3.90;2.20;;;;;;;-145.18;100.00;46660.41;5038939;28;20120;-61
2023/08/23 00:52:21;;;;;;;3.00;2.07;;;;;;;-145.18;100.00;46644.78;5030637;28;20076;-61
2023/08/23 00:54:46;;;;;;;4.97;2.03;;;;;;;-145.18;100.00;46640.88;5034702;28;20068;-62
2023/08/23 00:57:12;;;;;;;3.83;1.77;;;;;;;-145.18;100.00;46640.88;5035344;28;20036;-62
2023/08/23 00:59:37;;;;;;;5.90;2.70;;;;;;;-145.18;100.00;46642.81;5035718;28;20037;-61
2023/08/23 01:02:03;;;;;;;5.13;3.10;;;;;;;-145.18;100.00;46660.41;5034007;28;20564;-62
2023/08/23 01:04:28;;;;;;;4.37;2.23;;;;;;;-145.18;100.00;46660.41;5035726;28;20041;-62
2023/08/23 01:07:11;;;;;;;3.63;2.33;;;;;;;-145.18;100.00;46660.41;5035603;28;20492;-62
2023/08/23 01:10:01;;;;;;;5.10;2.80;;;;;;;-145.18;100.00;46660.41;5035429;28;20037;-62
2023/08/23 01:12:39;;;;;;;3.87;2.80;;;;;;;-145.18;100.00;46638.91;5034571;28;20519;-61
2023/08/23 01:15:07;;;;;;;7.20;3.30;;;;;;;-145.18;100.00;46638.91;5034250;28;20075;-62
2023/08/23 01:17:35;;;;;;;7.17;3.63;;;;;;;-145.18;100.00;46660.41;5035221;28;20029;-62
2023/08/23 01:20:01;;;;;;;5.00;3.70;;;;;;;-145.18;100.00;46660.41;5034880;28;20437;-62
2023/08/23 01:22:29;;;;;;;5.23;3.47;;;;;;;-145.18;100.00;46660.41;5034721;28;20049;-62
2023/08/23 01:24:55;;;;;;;8.43;3.47;;;;;;;-145.18;100.00;46660.41;5030544;28;20026;-62
2023/08/23 01:27:21;;;;;;;6.10;3.80;;;;;;;-145.18;100.00;46660.41;5034476;28;20029;-62
2023/08/23 01:29:47;;;;;;;8.03;3.83;;;;;;;-145.18;100.00;46660.41;5034703;28;20030;-62
2023/08/23 01:32:19;;;;;;;4.13;2.70;;;;;;;-145.18;100.00;46660.41;5035160;28;20139;-62
2023/08/23 01:34:50;;;;;;;4.73;2.50;;;;;;;-145.18;100.00;46660.41;5034886;28;20504;-62
2023/08/23 01:37:16;;;;;;;2.20;1.63;;;;;;;-145.18;100.00;46660.41;5035018;28;20100;-62
2023/08/23 01:39:42;;;;;;;3.40;1.90;;;;;;;-145.18;100.00;46660.41;5034698;28;20029;-62
2023/08/23 01:42:08;;;;;;;4.03;2.00;;;;;;;-145.18;100.00;46660.41;5034489;28;20028;-62
2023/08/23 01:44:33;;;;;;;4.60;3.27;;;;;;;-145.18;100.00;46660.41;5034914;28;20044;-62
2023/08/23 01:46:59;;;;;;;4.10;2.50;;;;;;;-145.18;100.00;46660.41;5034273;28;20053;-62
2023/08/23 01:49:24;;;;;;;9.23;2.97;;;;;;;-145.18;100.00;46660.41;5034201;28;20132;-62
2023/08/23 01:51:50;;;;;;;4.30;2.97;;;;;;;-145.18;100.00;46660.41;5033426;28;20064;-62
2023/08/23 01:54:15;;;;;;;9.47;2.20;;;;;;;-145.18;100.00;46660.41;5034427;28;20034;-62
2023/08/23 01:56:40;;;;;;;6.07;2.43;;;;;;;-145.18;100.00;46660.41;5033233;28;20094;-62
2023/08/23 01:59:06;;;;;;;4.30;2.50;;;;;;;-145.18;100.00;46660.41;5034590;28;20021;-62
2023/08/23 02:01:32;;;;;;;5.97;2.70;;;;;;;-145.18;100.00;46660.41;5034576;28;20111;-62
2023/08/23 02:03:57;;;;;;;6.00;2.83;;;;;;;-145.18;100.00;46660.41;5034143;28;20040;-62
2023/08/23 02:06:23;;;;;;;5.13;2.60;;;;;;;-145.18;100.00;46660.41;5033658;28;20037;-62
2023/08/23 02:08:48;;;;;;;6.30;2.97;;;;;;;-145.18;100.00;46660.41;5034482;28;20517;-62
2023/08/23 02:11:13;;;;;;;4.30;3.53;;;;;;;-145.18;100.00;46660.41;5034400;28;20034;-62
2023/08/23 02:13:39;;;;;;;3.03;2.30;;;;;;;-145.18;100.00;46660.41;5032860;28;20101;-62
2023/08/23 02:16:04;;;;;;;5.90;3.47;;;;;;;-145.18;100.00;46660.41;5034273;28;20029;-62
2023/08/23 02:18:29;;;;;;;3.43;2.90;;;;;;;-145.18;100.00;46660.41;5033955;28;20508;-61
2023/08/23 02:20:58;;;;;;;5.20;2.83;;;;;;;-145.18;100.00;46660.41;5034160;28;20037;-62
2023/08/23 02:23:24;;;;;;;5.37;2.90;;;;;;;-145.18;100.00;46660.41;5034064;28;20021;-62
2023/08/23 02:25:50;;;;;;;4.33;3.43;;;;;;;-145.18;100.00;46660.41;5033875;28;20371;-62
2023/08/23 02:28:15;;;;;;;6.30;3.17;;;;;;;-145.18;100.00;46660.41;5034089;28;20036;-62
2023/08/23 02:30:41;;;;;;;6.50;3.50;;;;;;;-145.18;100.00;46660.41;5032697;28;20112;-62
2023/08/23 02:33:06;;;;;;;4.53;2.90;;;;;;;-145.18;100.00;46660.41;5033867;28;20037;-62
2023/08/23 02:35:31;;;;;;;4.73;2.60;;;;;;;-145.18;100.00;46660.41;5033830;28;20405;-62
2023/08/23 02:37:57;;;;;;;4.40;2.93;;;;;;;-145.18;100.00;46636.94;5033797;28;20053;-62
2023/08/23 02:40:23;;;;;;;5.97;3.20;;;;;;;-145.18;100.00;46660.41;5034184;28;20030;-62
2023/08/23 02:42:48;;;;;;;4.30;2.93;;;;;;;-145.18;100.00;46660.41;5033285;28;20095;-62
2023/08/23 02:45:14;;;;;;;4.67;2.30;;;;;;;-145.18;100.00;46660.41;5028718;28;20030;-62
2023/08/23 02:47:39;;;;;;;4.93;3.10;;;;;;;-145.18;100.00;46660.41;5033700;28;20036;-62
2023/08/23 02:50:05;;;;;;;6.77;2.97;;;;;;;-145.18;100.00;46660.41;5032143;28;20528;-62
2023/08/23 02:52:31;;;;;;;6.77;3.30;;;;;;;-145.18;100.00;46660.41;5033302;28;20025;-62
2023/08/23 02:54:56;;;;;;;7.73;3.83;;;;;;;-145.18;100.00;46660.41;5031813;28;20115;-62
2023/08/23 02:57:22;;;;;;;4.83;3.17;;;;;;;-145.18;100.00;46660.41;5033344;28;20084;-62
2023/08/23 02:59:47;;;;;;;4.90;2.80;;;;;;;-145.18;100.00;46660.41;5033438;28;20100;-62
2023/08/23 03:02:12;;;;;;;3.93;2.77;;;;;;;-145.18;100.00;46660.41;5031745;28;20033;-62
2023/08/23 03:04:38;;;;;;;3.20;2.13;;;;;;;-145.18;100.00;46660.41;5033159;28;20033;-62
2023/08/23 03:07:03;;;;;;;3.63;2.53;;;;;;;-145.18;100.00;46660.41;5031514;28;20064;-62
2023/08/23 03:09:29;;;;;;;6.63;3.03;;;;;;;-145.18;100.00;46660.41;5033063;28;20059;-62
2023/08/23 03:11:54;;;;;;;4.47;2.53;;;;;;;-145.18;100.00;46660.41;5033343;28;20017;-62
2023/08/23 03:14:19;;;;;;;8.50;2.73;;;;;;;-145.18;100.00;46660.41;5033125;28;20033;-62
2023/08/23 03:16:45;;;;;;;4.27;3.40;;;;;;;-145.18;100.00;46660.41;5031586;28;20021;-62
2023/08/23 03:19:10;;;;;;;4.40;2.90;;;;;;;-145.18;100.00;46660.41;5032930;28;20100;-62
2023/08/23 03:21:35;;;;;;;6.40;2.80;;;;;;;-145.18;100.00;46660.41;5033251;28;20393;-62
2023/08/23 03:24:01;;;;;;;7.90;3.30;;;;;;;-145.18;100.00;46660.41;5032972;28;20109;-62
2023/08/23 03:26:26;;;;;;;7.13;3.00;;;;;;;-145.18;100.00;46660.41;5031610;28;20021;-62
2023/08/23 03:28:52;;;;;;;4.70;2.90;;;;;;;-145.18;100.00;46660.41;5032773;28;20402;-62
2023/08/23 03:31:17;;;;;;;7.30;2.70;;;;;;;-145.18;100.00;46660.41;5031205;28;20021;-62
2023/08/23 03:33:42;;;;;;;3.03;2.50;;;;;;;-145.18;100.00;46660.41;5032699;28;20037;-62
2023/08/23 03:36:08;;;;;;;3.30;2.23;;;;;;;-145.18;100.00;46660.41;5032967;28;20090;-62
2023/08/23 03:38:33;;;;;;;4.40;3.13;;;;;;;-145.18;100.00;46660.41;5032836;28;20097;-62
2023/08/23 03:40:58;;;;;;;12.53;3.33;;;;;;;-145.18;100.00;46660.41;5028710;28;20111;-62
2023/08/23 03:43:24;;;;;;;7.40;3.80;;;;;;;-145.18;100.00;46660.41;5030630;28;20037;-62
2023/08/23 03:45:50;;;;;;;7.97;3.87;;;;;;;-145.18;100.00;46660.41;5033048;28;20457;-62
2023/08/23 03:48:18;;;;;;;10.30;3.30;;;;;;;-145.18;100.00;46660.41;5037033;28;20037;-62
2023/08/23 03:50:43;;;;;;;9.53;3.20;;;;;;;-145.18;100.00;46660.41;5031086;28;20501;-62
2023/08/23 03:53:09;;;;;;;5.00;3.67;;;;;;;-145.18;100.00;46660.41;5047199;28;20021;-62
2023/08/23 03:55:36;;;;;;;8.07;3.40;;;;;;;-145.18;100.00;46660.41;5031587;28;20036;-62
2023/08/23 03:58:03;;;;;;;5.50;3.93;;;;;;;-145.18;100.00;46660.41;5029968;28;20029;-63
2023/08/23 04:00:28;;;;;;;7.27;4.50;;;;;;;-145.18;100.00;46660.41;5032286;28;20033;-62
2023/08/23 04:02:54;;;;;;;8.20;4.47;;;;;;;-145.18;100.00;46660.41;5032024;28;20036;-62
2023/08/23 04:05:19;;;;;;;6.57;4.60;;;;;;;-145.18;100.00;46660.41;5032238;28;20113;-62
2023/08/23 04:07:45;;;;;;;5.70;3.83;;;;;;;-145.18;100.00;46660.41;5031187;28;20030;-62
2023/08/23 04:10:10;;;;;;;7.27;3.87;;;;;;;-145.18;100.00;46660.41;5031140;28;20116;-62
2023/08/23 04:12:36;;;;;;;6.83;3.53;;;;;;;-145.18;100.00;46660.41;5030503;28;20029;-62
2023/08/23 04:15:02;;;;;;;8.97;4.47;;;;;;;-145.18;100.00;46660.41;5046863;28;20564;-62
2023/08/23 04:17:28;;;;;;;6.63;3.87;;;;;;;-145.18;100.00;46660.41;5031901;28;20041;-62
2023/08/23 04:19:53;;;;;;;8.33;4.50;;;;;;;-145.18;100.00;46660.41;5031476;28;20021;-62
2023/08/23 04:22:19;;;;;;;6.37;4.27;;;;;;;-145.18;100.00;46658.44;5031860;28;20032;-62
2023/08/23 04:24:44;;;;;;;5.97;4.13;;;;;;;-145.18;100.00;46658.44;5031694;28;20041;-63
2023/08/23 04:27:09;;;;;;;8.50;5.30;;;;;;;-145.18;100.00;46660.41;5032108;28;20535;-62
2023/08/23 04:29:35;;;;;;;8.63;4.43;;;;;;;-145.18;100.00;46660.41;5031373;28;20120;-62
2023/08/23 04:32:00;;;;;;;5.70;4.13;;;;;;;-145.18;100.00;46658.44;5032073;28;20057;-62
2023/08/23 04:34:26;;;;;;;5.10;3.90;;;;;;;-145.18;100.00;46660.41;5030566;28;20099;-63
2023/08/23 04:36:51;;;;;;;4.20;3.40;;;;;;;-145.18;100.00;46656.50;5032095;28;20052;-63
2023/08/23 04:39:17;;;;;;;5.23;3.20;;;;;;;-145.18;100.00;46660.41;5033358;28;20037;-62
2023/08/23 04:41:42;;;;;;;5.27;3.30;;;;;;;-145.18;100.00;46656.50;5030653;28;20037;-63
2023/08/23 04:44:07;;;;;;;3.67;2.50;;;;;;;-145.18;100.00;46660.41;5031794;28;20045;-62
2023/08/23 04:46:33;;;;;;;3.10;2.47;;;;;;;-145.18;100.00;46660.41;5029858;28;20091;-62
2023/08/23 04:48:58;;;;;;;3.27;2.33;;;;;;;-145.18;100.00;46660.41;5031043;28;20057;-63
2023/08/23 04:51:23;;;;;;;4.07;2.40;;;;;;;-145.18;100.00;46660.41;5032090;28;20053;-63
2023/08/23 04:53:49;;;;;;;6.27;3.77;;;;;;;-145.18;100.00;46658.44;5027574;28;20080;-62
2023/08/23 04:56:14;;;;;;;5.27;3.50;;;;;;;-145.18;100.00;46656.50;5030280;28;20021;-62
2023/08/23 04:58:39;;;;;;;6.13;3.97;;;;;;;-145.18;100.00;46660.41;5030489;28;20071;-62
2023/08/23 05:01:05;;;;;;;7.83;4.67;;;;;;;-145.18;100.00;46660.41;5030114;28;20052;-63
2023/08/23 05:03:32;;;;;;;8.97;4.27;;;;;;;-145.18;100.00;46660.41;5022498;28;20040;-63
2023/08/23 05:05:58;;;;;;;6.63;4.00;;;;;;;-145.18;100.00;46658.44;5018640;28;20113;-62
2023/08/23 05:08:24;;;;;;;9.10;4.30;;;;;;;-145.18;100.00;46658.44;5024463;28;20030;-63
2023/08/23 05:10:53;;;;;;;6.97;4.30;;;;;;;-145.18;100.00;46658.44;5028120;28;20440;-62
2023/08/23 05:13:19;;;;;;;6.27;4.27;;;;;;;-145.18;100.00;46660.41;5027888;28;20057;-62
2023/08/23 05:15:50;;;;;;;9.00;4.30;;;;;;;-145.18;100.00;46660.41;5030291;28;20025;-62
2023/08/23 05:18:15;;;;;;;7.00;4.60;;;;;;;-145.18;100.00;46660.41;5024469;28;20119;-63
2023/08/23 05:20:40;;;;;;;6.50;4.57;;;;;;;-145.18;100.00;46658.44;5021127;28;20109;-63
2023/08/23 05:23:06;;;;;;;6.33;4.83;;;;;;;-145.18;100.00;46660.41;5026421;28;20132;-63
2023/08/23 05:25:31;;;;;;;8.50;4.70;;;;;;;-145.18;100.00;46660.41;5030377;28;21274;-63
2023/08/23 05:27:56;;;;;;;7.93;4.70;;;;;;;-145.18;100.00;46660.41;5029920;28;20091;-63
2023/08/23 05:30:22;;;;;;;5.87;4.23;;;;;;;-145.18;100.00;46658.44;5029731;28;20033;-63
2023/08/23 05:32:47;;;;;;;7.53;4.73;;;;;;;-145.18;100.00;46660.41;5019683;28;20049;-63
2023/08/23 05:35:12;;;;;;;10.83;5.27;;;;;;;-145.18;100.00;46660.41;5028553;28;20025;-63
2023/08/23 05:37:38;;;;;;;7.70;4.80;;;;;;;-145.18;100.00;46660.41;5025013;28;20033;-63
2023/08/23 05:40:04;;;;;;;10.23;5.90;;;;;;;-145.18;100.00;46660.41;5023954;28;20034;-63
2023/08/23 05:42:30;;;;;;;15.90;5.50;;;;;;;-145.18;100.00;46660.41;5033269;28;20037;-63
2023/08/23 05:44:56;;;;;;;7.67;5.13;;;;;;;-145.18;100.00;46658.44;5033281;28;20489;-63
2023/08/23 05:47:21;;;;;;;8.60;5.87;;;;;;;-145.18;100.00;46660.41;5033346;28;20037;-63
2023/08/23 05:49:47;;;;;;;13.30;5.97;;;;;;;-145.18;100.00;46625.22;5032946;28;20053;-63
2023/08/23 05:52:12;;;;;;;10.40;6.87;;;;;;;-145.18;100.00;46658.44;5034857;28;20485;-63
2023/08/23 05:54:37;;;;;;;8.87;6.00;;;;;;;-145.18;100.00;46660.41;5034996;28;20108;-63
2023/08/23 05:57:04;;;;;;;9.87;5.90;;;;;;;-145.18;100.00;46660.41;5034339;28;20067;-63
2023/08/23 05:59:30;;;;;;;11.87;6.50;;;;;;;-145.18;100.00;46660.41;5034803;28;20036;-63
2023/08/23 06:01:55;;;;;;;9.97;5.47;;;;;;;-145.18;100.00;46660.41;5034810;28;20041;-63
2023/08/23 06:04:20;;;;;;;11.13;6.53;;;;;;;-145.18;100.00;46660.41;5033181;28;20033;-63
2023/08/23 06:06:47;;;;;;;12.33;7.57;;;;;;;-145.18;100.00;46658.44;5034649;28;20030;-63
2023/08/23 06:09:12;;;;;;;13.23;7.10;;;;;;;-145.18;100.00;46658.44;5031216;28;20123;-63
2023/08/23 06:11:38;;;;;;;12.30;6.90;;;;;;;-145.18;100.00;46654.53;5034569;28;20065;-63
2023/08/23 06:14:17;;;;;;;17.03;8.03;;;;;;;-145.18;100.00;46650.63;5033951;28;20112;-63
2023/08/23 06:16:42;;;;;;;13.20;8.23;;;;;;;-145.18;100.00;46658.44;5034422;28;20033;-63
2023/08/23 06:19:08;;;;;;;20.43;10.80;;;;;;;-145.18;100.00;46654.53;5036568;28;20457;-63
2023/08/23 06:21:33;;;;;;;14.17;8.80;;;;;;;-145.18;100.00;46654.53;5031659;28;20060;-63
2023/08/23 06:23:58;;;;;;;21.53;10.50;;;;;;;-145.18;100.00;46652.59;5034361;28;20038;-63
2023/08/23 06:26:24;;;;;;;15.03;10.17;;;;;;;-145.18;100.00;46654.53;5033834;28;20037;-63
2023/08/23 06:28:49;;;;;;;18.23;10.80;;;;;;;-145.18;100.00;46654.53;5034157;28;20160;-63
2023/08/23 06:31:21;;;;;;;19.90;11.03;;;;;;;-145.18;100.00;46652.59;5034043;28;20492;-63
2023/08/23 06:33:46;;;;;;;13.43;10.20;;;;;;;-145.18;100.00;46640.88;5034369;28;20063;-63
2023/08/23 06:36:12;;;;;;;17.23;10.80;;;;;;;-145.18;100.00;46650.63;5033787;28;20504;-63
2023/08/23 06:38:37;;;;;;;21.90;12.07;;;;;;;-145.18;100.00;46650.63;5034323;28;20033;-63
2023/08/23 06:41:02;;;;;;;18.63;11.67;;;;;;;-145.18;100.00;46650.63;5033821;28;20477;-63
2023/08/23 06:43:28;;;;;;;20.40;12.00;;;;;;;-145.18;100.00;46648.69;5033737;28;20425;-63
2023/08/23 06:45:53;;;;;;;21.47;12.67;;;;;;;-145.18;100.00;46640.88;5032403;28;20112;-60
2023/08/23 06:48:19;;;;;;;19.97;11.90;;;;;;;-145.18;100.00;46640.88;5033973;28;20091;-60
2023/08/23 06:50:44;;;;;;;20.83;12.33;;;;;;;-145.18;100.00;46609.59;5033054;28;20049;-60
2023/08/23 06:53:10;;;;;;;21.60;12.07;;;;;;;-145.18;100.00;46613.50;5033352;28;20025;-60
2023/08/23 06:55:41;;;;;;;24.10;12.87;;;;;;;-145.18;100.00;46609.59;5033869;28;20037;-60
2023/08/23 06:58:10;;;;;;;18.83;11.90;;;;;;;-145.18;100.00;46613.50;5048586;28;20497;-60
2023/08/23 07:00:36;;;;;;;20.00;12.30;;;;;;;-145.18;100.00;46605.69;5033395;28;20026;-60
2023/08/23 07:03:01;;;;;;;20.13;12.07;;;;;;;-145.18;100.00;46609.59;5032456;28;20061;-60
2023/08/23 07:05:27;;;;;;;18.57;11.43;;;;;;;-145.18;100.00;46611.56;5033673;28;20033;-60
2023/08/23 07:07:53;;;;;;;21.93;13.30;;;;;;;-145.18;100.00;46603.75;5033337;28;20119;-60
2023/08/23 07:10:18;;;;;;;23.67;13.03;;;;;;;-145.18;100.00;46611.56;5032415;28;20026;-60
2023/08/23 07:12:44;;;;;;;18.87;12.33;;;;;;;-145.18;100.00;46611.56;5033250;28;20392;-60
2023/08/23 07:15:09;;;;;;;22.90;12.30;;;;;;;-145.18;100.00;46607.66;5032740;28;20029;-60
2023/08/23 07:17:36;;;;;;;18.17;12.07;;;;;;;-145.18;100.00;46607.66;5028883;28;20128;-60
2023/08/23 07:20:03;;;;;;;23.87;13.17;;;;;;;-145.18;100.00;46609.59;5047976;28;20021;-60
2023/08/23 07:22:28;;;;;;;23.37;13.40;;;;;;;-145.18;100.00;46613.50;5022246;28;20061;-60
2023/08/23 07:24:53;;;;;;;20.87;12.23;;;;;;;-145.18;100.00;46613.50;5033007;28;20520;-60
2023/08/23 07:27:19;;;;;;;22.23;12.40;;;;;;;-145.18;100.00;46615.47;5031909;28;20037;-58
2023/08/23 07:29:45;;;;;;;20.43;12.80;;;;;;;-145.18;100.00;46617.41;5047851;28;20104;-60
2023/08/23 07:32:11;;;;;;;21.57;13.00;;;;;;;-145.18;100.00;46615.47;5031422;28;20448;-60
2023/08/23 07:34:36;;;;;;;25.00;12.23;;;;;;;-145.18;100.00;46611.56;5031462;28;20036;-60
2023/08/23 07:37:01;;;;;;;21.40;12.17;;;;;;;-145.18;100.00;46617.41;5032839;28;20045;-60
2023/08/23 07:39:27;;;;;;;25.33;13.67;;;;;;;-145.18;100.00;46617.41;5032599;28;20124;-60
2023/08/23 07:41:54;;;;;;;23.63;11.93;;;;;;;-145.18;100.00;46619.38;5032480;28;20037;-60
2023/08/23 07:44:19;;;;;;;25.20;11.93;;;;;;;-145.18;100.00;46625.22;5032547;28;20029;-60
2023/08/23 07:46:45;;;;;;;21.67;11.97;;;;;;;-145.18;100.00;46621.31;5032409;28;20036;-60
2023/08/23 07:49:11;;;;;;;20.07;12.10;;;;;;;-145.18;100.00;46625.22;5032075;28;20046;-60
2023/08/23 07:51:37;;;;;;;22.30;11.63;;;;;;;-145.18;100.00;46629.13;5032097;28;20037;-60
2023/08/23 07:54:03;;;;;;;22.07;12.40;;;;;;;-145.18;100.00;46629.13;5032244;28;20467;-64
2023/08/23 07:56:29;;;;;;;23.50;11.57;;;;;;;-145.18;100.00;46629.13;5032169;28;20079;-67
2023/08/23 07:58:54;;;;;;;26.87;11.03;;;;;;;-145.18;100.00;46633.06;5032157;28;20067;-67
2023/08/23 08:01:19;;;;;;;19.13;10.43;;;;;;;-145.18;100.00;46638.91;5032534;28;20057;-67
2023/08/23 08:03:45;;;;;;;17.73;10.13;;;;;;;-145.18;100.00;46640.88;5031517;28;20477;-67
2023/08/23 08:06:11;;;;;;;19.00;10.57;;;;;;;-145.18;100.00;46640.88;5030609;28;20030;-67
2023/08/23 08:08:39;;;;;;;19.03;10.70;;;;;;;-145.18;100.00;46644.78;5032011;28;20022;-67
2023/08/23 08:11:05;;;;;;;19.53;10.77;;;;;;;-145.18;100.00;46640.88;5031837;28;20022;-67
2023/08/23 08:13:30;;;;;;;21.53;12.37;;;;;;;-145.18;100.00;46640.88;5031242;28;20041;-67
2023/08/23 08:15:56;;;;;;;21.63;10.43;;;;;;;-145.18;100.00;46644.78;5031837;28;20021;-68
2023/08/23 08:18:21;;;;;;;22.40;11.13;;;;;;;-145.18;100.00;46648.69;5032022;28;20034;-67
2023/08/23 08:20:48;;;;;;;21.70;9.90;;;;;;;-145.18;100.00;46644.78;5031972;28;20026;-67
2023/08/23 08:23:13;;;;;;;16.53;9.67;;;;;;;-145.18;100.00;46644.78;5031758;28;20159;-67
2023/08/23 08:25:39;;;;;;;19.30;9.13;;;;;;;-145.18;100.00;46650.63;5031936;28;20106;-67
2023/08/23 08:28:05;;;;;;;17.23;9.37;;;;;;;-145.18;100.00;46646.72;5031434;28;20040;-67
2023/08/23 08:30:30;;;;;;;19.00;9.43;;;;;;;-145.18;100.00;46650.63;5032073;28;20037;-67
2023/08/23 08:32:56;;;;;;;20.10;9.63;;;;;;;-145.18;100.00;46652.59;5032007;28;20448;-67
2023/08/23 08:35:21;;;;;;;16.13;9.10;;;;;;;-145.18;100.00;46652.59;5032184;28;20397;-67
2023/08/23 08:37:46;;;;;;;23.07;9.23;;;;;;;-145.18;100.00;46656.50;5031700;28;20393;-67
2023/08/23 08:40:12;;;;;;;14.17;8.40;;;;;;;-145.18;100.00;46656.50;5022489;28;20508;-67
2023/08/23 08:42:37;;;;;;;15.57;7.87;;;;;;;-145.18;100.00;46664.31;5026586;28;20508;-67
2023/08/23 08:45:07;;;;;;;14.03;7.53;;;;;;;-145.18;100.00;46664.31;5028798;28;20046;-67
2023/08/23 08:47:32;;;;;;;13.80;6.93;;;;;;;-145.18;100.00;46674.06;5029011;28;20493;-67
2023/08/23 08:49:57;;;;;;;19.87;7.00;;;;;;;-145.18;100.00;46672.13;5031290;28;20054;-67
2023/08/23 08:52:26;;;;;;;9.80;5.60;;;;;;;-145.18;100.00;46672.13;5031744;28;20037;-67
2023/08/23 08:54:53;;;;;;;10.33;6.03;;;;;;;-145.18;100.00;46642.81;5031584;28;20079;-67
2023/08/23 08:57:19;;;;;;;12.27;5.80;;;;;;;-145.18;100.00;46568.59;5031859;28;20022;-67
2023/08/23 08:59:46;;;;;;;11.17;6.70;;;;;;;-145.18;100.00;46576.41;5031753;28;20017;-67
2023/08/23 09:02:15;;;;;;;10.30;6.20;;;;;;;-145.18;100.00;46564.69;5031758;28;20048;-67
2023/08/23 09:04:46;;;;;;;9.87;6.10;;;;;;;-145.18;100.00;46566.63;5031751;28;20029;-67
2023/08/23 09:07:12;;;;;;;13.77;6.63;;;;;;;-145.18;100.00;46593.97;5031429;28;20025;-67
2023/08/23 09:09:37;;;;;;;11.97;5.87;;;;;;;-145.18;100.00;46551.00;5031122;28;20033;-67
2023/08/23 09:12:03;;;;;;;15.30;6.10;;;;;;;-145.18;100.00;46549.06;5031498;28;20040;-67
2023/08/23 09:14:29;;;;;;;10.80;6.40;;;;;;;-145.18;100.00;46580.31;5032159;28;20034;-67
2023/08/23 09:16:55;;;;;;;11.80;6.40;;;;;;;-145.18;100.00;46549.06;5035181;28;20053;-68
2023/08/23 09:19:20;;;;;;;11.73;6.57;;;;;;;-145.18;100.00;46545.16;5035332;28;20103;-67
2023/08/23 09:21:49;;;;;;;17.07;7.37;;;;;;;-145.18;100.00;46552.97;5035115;28;20120;-67
2023/08/23 09:24:15;;;;;;;11.87;7.30;;;;;;;-145.18;100.00;46547.09;5035029;28;20168;-67
2023/08/23 09:26:40;;;;;;;14.47;7.20;;;;;;;-145.18;100.00;46547.09;5035298;28;20029;-67
2023/08/23 09:29:06;;;;;;;14.43;8.53;;;;;;;-145.18;100.00;46539.28;5035033;28;20397;-67
2023/08/23 09:31:32;;;;;;;11.75;6.82;;;;;;;-145.18;100.00;46537.34;5034894;28;20497;-66
2023/08/23 09:33:58;;;;;;;13.77;6.70;;;;;;;-145.18;100.00;46545.16;5034877;28;20053;-67
2023/08/23 09:36:28;;;;;;;16.13;7.07;;;;;;;-145.18;100.00;46547.09;5034676;28;20029;-66
2023/08/23 09:38:56;;;;;;;12.17;6.20;;;;;;;-145.18;100.00;46552.97;5035143;28;20034;-66
2023/08/23 09:41:24;;;;;;;10.55;5.22;;;;;;;-145.18;100.00;46541.25;5034842;28;20049;-67
2023/08/23 09:43:54;;;;;;;10.00;6.63;;;;;;;-145.18;100.00;46554.91;5034708;28;20417;-67
2023/08/23 09:46:25;;;;;;;15.87;6.70;;;;;;;-145.18;100.00;46547.09;5022006;28;20075;-67
2023/08/23 09:48:52;;;;;;;13.05;6.47;;;;;;;-145.18;100.00;46547.09;5034565;28;20034;-67
2023/08/23 09:51:22;;;;;;;12.82;7.18;;;;;;;-145.18;100.00;46554.91;5034909;28;20025;-67
2023/08/23 09:53:51;;;;;;;12.38;7.50;;;;;;;-145.18;100.00;46541.25;5034413;28;20477;-67
2023/08/23 09:56:17;;;;;;;10.77;7.68;;;;;;;-145.18;100.00;46545.16;5034545;28;20096;-67
2023/08/23 09:58:43;;;;;;;14.27;9.10;;;;;;;-145.18;100.00;46551.00;5034811;28;20037;-66
2023/08/23 10:01:10;;;;;;;14.35;8.13;;;;;;;-145.18;100.00;46551.00;5034261;28;20056;-67
2023/08/23 10:03:35;;;;;;;15.65;9.05;;;;;;;-145.18;100.00;46545.16;5028617;28;20038;-67
2023/08/23 10:06:02;;;;;;;15.60;8.23;;;;;;;-145.18;100.00;46547.09;5032808;28;20088;-67
2023/08/23 10:08:31;;;;;;;12.30;8.18;;;;;;;-145.18;100.00;46547.09;5032930;28;21366;-67
2023/08/23 10:10:57;;;;;;;13.30;7.68;;;;;;;-145.18;100.00;46541.25;5033898;28;20626;-67
2023/08/23 10:13:23;;;;;;;11.80;7.25;;;;;;;-145.18;100.00;46543.19;5034454;28;20033;-66
2023/08/23 10:15:50;;;;;;;12.60;8.82;;;;;;;-145.18;100.00;46543.19;5034423;28;20025;-61
2023/08/23 10:18:16;;;;;;;15.45;8.48;;;;;;;-145.18;100.00;46541.25;5034265;28;20114;-61
2023/08/23 10:20:42;;;;;;;14.98;8.23;;;;;;;-145.18;100.00;46541.25;5034111;28;20060;-61
2023/08/23 10:23:15;;;;;;;14.45;8.70;;;;;;;-145.18;100.00;46551.00;5032584;28;20037;-61
2023/08/23 10:25:45;;;;;;;17.27;6.82;;;;;;;-145.18;100.00;46537.34;5033641;28;20035;-61
2023/08/23 10:28:16;;;;;;;16.02;7.28;;;;;;;-145.18;100.00;46545.16;5033580;28;20048;-61
2023/08/23 10:30:49;;;;;;;20.38;8.40;;;;;;;-145.18;100.00;46543.19;5033743;28;20037;-61
2023/08/23 10:33:16;;;;;;;13.65;8.43;;;;;;;-145.18;100.00;46543.19;5033829;28;20106;-61
2023/08/23 10:35:43;;;;;;;13.40;8.15;;;;;;;-145.18;100.00;46547.09;5034107;28;20037;-61
2023/08/23 10:38:09;;;;;;;15.27;8.55;;;;;;;-145.18;100.00;46533.44;5033918;28;20025;-61
2023/08/23 10:40:36;;;;;;;13.70;8.52;;;;;;;-145.18;100.00;46531.47;5034009;28;20029;-61
2023/08/23 10:43:12;;;;;;;13.88;7.97;;;;;;;-145.18;100.00;46531.47;5032238;28;20037;-61
2023/08/23 10:45:56;;;;;;;18.30;9.88;;;;;;;-145.18;100.00;46525.63;5033718;28;20060;-61
2023/08/23 10:48:23;;;;;;;18.20;10.38;;;;;;;-145.18;100.00;46517.81;5024739;28;20033;-61
2023/08/23 10:50:49;;;;;;;15.80;9.60;;;;;;;-145.18;100.00;46531.47;5033062;28;20123;-61
2023/08/23 10:53:16;;;;;;;16.55;8.55;;;;;;;-145.18;100.00;46552.97;5033458;28;20374;-61
2023/08/23 10:55:42;;;;;;;15.27;7.72;;;;;;;-145.18;100.00;46525.63;5033219;28;20028;-61
2023/08/23 10:58:07;;;;;;;16.77;9.05;;;;;;;-145.18;100.00;46504.13;5033665;28;20045;-61
2023/08/23 11:00:33;;;;;;;18.27;9.20;;;;;;;-145.18;100.00;46521.72;5033543;28;20029;-61